createdAt,value
2022-09-07T00:02:47.889Z,16.15
2022-09-07T00:07:51.037Z,16.11
2022-09-07T00:12:54.089Z,16.06
2022-09-07T00:17:57.253Z,16.01
2022-09-07T00:23:00.319Z,15.96
2022-09-07T00:28:03.592Z,15.90
2022-09-07T00:33:06.639Z,15.84
2022-09-07T00:38:10.056Z,15.78
2022-09-07T00:43:31.699Z,15.72
2022-09-07T00:48:42.492Z,15.64
2022-09-07T00:53:55.643Z,15.56
2022-09-07T00:58:59.337Z,15.50
2022-09-07T01:04:03.602Z,15.44
2022-09-07T01:09:12.166Z,15.38
2022-09-07T01:14:15.999Z,15.33
2022-09-07T01:19:53.093Z,15.29
2022-09-07T01:25:22.275Z,15.21
2022-09-07T01:30:26.841Z,15.15
2022-09-07T01:35:45.112Z,15.10
2022-09-07T01:40:57.022Z,15.05
2022-09-07T01:46:03.644Z,15.01
2022-09-07T01:51:07.024Z,14.96
2022-09-07T01:56:27.538Z,14.93
2022-09-07T02:01:33.563Z,14.90
2022-09-07T02:06:51.055Z,14.87
2022-09-07T02:11:54.909Z,14.83
2022-09-07T02:17:11.144Z,14.79
2022-09-07T02:22:19.056Z,14.74
2022-09-07T02:27:34.118Z,14.69
2022-09-07T02:32:37.369Z,14.63
2022-09-07T02:37:42.748Z,14.56
2022-09-07T02:42:47.836Z,14.50
2022-09-07T02:48:34.627Z,14.45
2022-09-07T02:53:57.044Z,14.38
2022-09-07T02:59:11.619Z,14.30
2022-09-07T03:04:42.132Z,14.23
2022-09-07T03:09:50.399Z,14.17
2022-09-07T03:14:53.230Z,14.12
2022-09-07T03:19:56.076Z,14.07
2022-09-07T03:24:59.178Z,14.01
2022-09-07T03:30:02.220Z,13.95
2022-09-07T03:35:08.017Z,13.87
2022-09-07T03:40:13.731Z,13.81
2022-09-07T03:45:16.894Z,13.75
2022-09-07T03:50:19.893Z,13.69
2022-09-07T03:55:22.748Z,13.61
2022-09-07T04:00:26.205Z,13.55
2022-09-07T04:05:29.077Z,13.49
2022-09-07T04:10:32.435Z,13.44
2022-09-07T04:15:35.437Z,13.39
2022-09-07T04:20:38.312Z,13.35
2022-09-07T04:25:48.632Z,13.32
2022-09-07T04:30:51.500Z,13.30
2022-09-07T04:35:54.415Z,13.28
2022-09-07T04:41:00.713Z,13.26
2022-09-07T04:46:06.126Z,13.24
2022-09-07T04:51:10.921Z,13.22
2022-09-07T04:56:16.891Z,13.20
2022-09-07T05:01:23.387Z,13.19
2022-09-07T05:06:26.339Z,13.21
2022-09-07T05:11:30.186Z,13.23
2022-09-07T05:16:33.268Z,13.25
2022-09-07T05:21:36.214Z,13.30
2022-09-07T05:26:39.839Z,13.32
2022-09-07T05:31:42.773Z,13.36
2022-09-07T05:36:45.718Z,13.41
2022-09-07T05:41:48.617Z,13.47
2022-09-07T05:46:52.804Z,13.57
2022-09-07T05:51:55.823Z,13.77
2022-09-07T05:56:58.758Z,13.96
2022-09-07T06:02:01.985Z,14.14
2022-09-07T06:07:21.182Z,14.26
2022-09-07T06:12:25.423Z,14.50
2022-09-07T06:17:31.305Z,14.78
2022-09-07T06:22:38.061Z,15.11
2022-09-07T06:27:40.958Z,15.58
2022-09-07T06:32:44.432Z,15.77
2022-09-07T06:37:47.787Z,15.79
2022-09-07T06:42:50.924Z,15.82
2022-09-07T06:47:55.001Z,15.92
2022-09-07T06:58:21.137Z,15.76
2022-09-07T07:03:24.353Z,15.65
2022-09-07T07:08:27.277Z,15.58
2022-09-07T07:13:30.262Z,15.55
2022-09-07T07:18:34.321Z,15.53
2022-09-07T07:23:37.894Z,15.57
2022-09-07T07:29:04.595Z,15.62
2022-09-07T07:34:08.620Z,15.69
2022-09-07T07:44:34.661Z,15.84
2022-09-07T07:49:37.557Z,15.94
2022-09-07T07:54:40.523Z,16.06
2022-09-07T07:59:43.429Z,16.18
2022-09-07T08:04:46.332Z,16.30
2022-09-07T08:09:49.421Z,16.42
2022-09-07T08:14:54.185Z,16.57
2022-09-07T08:19:57.390Z,16.71
2022-09-07T08:25:00.633Z,16.92
2022-09-07T08:30:03.923Z,17.26
2022-09-07T08:35:08.181Z,17.51
2022-09-07T08:40:18.605Z,17.72
2022-09-07T08:45:29.026Z,17.91
2022-09-07T08:50:46.641Z,18.08
2022-09-07T08:55:55.076Z,18.21
2022-09-07T09:06:47.391Z,18.59
2022-09-07T09:12:02.584Z,18.76
2022-09-07T09:17:16.251Z,18.92
2022-09-07T09:22:21.880Z,19.06
2022-09-07T09:27:24.775Z,19.23
2022-09-07T09:32:39.959Z,19.41
2022-09-07T09:37:44.692Z,19.58
2022-09-07T09:42:48.073Z,19.73
2022-09-07T09:47:54.742Z,19.88
2022-09-07T09:52:58.737Z,20.06
2022-09-07T10:09:02.511Z,20.62
2022-09-07T10:14:05.738Z,20.78
2022-09-07T10:19:32.210Z,20.97
2022-09-07T10:24:39.751Z,21.21
2022-09-07T10:29:42.693Z,21.42
2022-09-07T10:35:30.059Z,21.60
2022-09-07T10:40:56.288Z,21.82
2022-09-07T10:46:56.412Z,21.98
2022-09-07T10:51:51.601Z,22.13
2022-09-07T10:57:13.755Z,22.26
2022-09-07T11:03:24.783Z,22.31
2022-09-07T11:09:15.106Z,22.37
2022-09-07T11:14:13.527Z,22.51
2022-09-07T11:19:38.174Z,22.64
2022-09-07T11:25:33.053Z,22.77
2022-09-07T11:30:44.183Z,22.91
2022-09-07T11:35:53.734Z,23.01
2022-09-07T11:41:02.889Z,23.13
2022-09-07T11:46:12.049Z,23.30
2022-09-07T11:51:35.364Z,23.51
2022-09-07T11:56:45.574Z,23.72
2022-09-07T12:02:17.516Z,23.93
2022-09-07T12:07:43.093Z,24.20
2022-09-07T12:13:04.284Z,24.48
2022-09-07T12:18:25.142Z,24.74
2022-09-07T12:23:31.137Z,24.98
2022-09-07T12:28:33.982Z,25.16
2022-09-07T12:33:38.976Z,25.38
2022-09-07T12:39:02.832Z,25.61
2022-09-07T12:44:07.356Z,25.84
2022-09-07T12:49:29.056Z,26.04
2022-09-07T12:54:38.818Z,26.26
2022-09-07T13:00:05.735Z,26.45
2022-09-07T13:05:35.534Z,26.49
2022-09-07T13:10:41.764Z,26.53
2022-09-07T13:15:50.273Z,26.71
2022-09-07T13:21:08.640Z,26.87
2022-09-07T13:26:52.910Z,27.03
2022-09-07T13:32:15.824Z,27.20
2022-09-07T13:37:23.227Z,27.35
2022-09-07T13:42:30.455Z,27.47
2022-09-07T13:47:57.488Z,27.57
2022-09-07T13:53:21.575Z,27.66
2022-09-07T13:58:34.173Z,27.74
2022-09-07T14:03:51.826Z,27.70
2022-09-07T14:08:57.631Z,27.53
2022-09-07T14:14:07.707Z,27.23
2022-09-07T14:19:34.024Z,26.81
2022-09-07T14:24:47.155Z,26.39
2022-09-07T14:29:50.610Z,26.01
2022-09-07T14:34:53.573Z,25.70
2022-09-07T14:39:57.568Z,25.38
2022-09-07T14:45:18.356Z,25.11
2022-09-07T14:50:25.345Z,24.87
2022-09-07T14:55:33.337Z,24.67
2022-09-07T15:00:36.424Z,24.48
2022-09-07T15:05:49.110Z,24.35
2022-09-07T15:16:33.043Z,24.04
2022-09-07T15:21:39.765Z,23.87
2022-09-07T15:27:03.360Z,23.78
2022-09-07T15:32:09.461Z,23.71
2022-09-07T15:47:59.710Z,23.43
2022-09-07T15:53:03.144Z,23.37
2022-09-07T15:58:11.894Z,23.32
2022-09-07T16:03:15.108Z,23.28
2022-09-07T16:08:26.148Z,23.22
2022-09-07T16:13:31.395Z,23.14
2022-09-07T16:18:34.972Z,23.09
2022-09-07T16:23:40.796Z,23.04
2022-09-07T16:28:46.061Z,23.01
2022-09-07T16:33:49.098Z,22.96
2022-09-07T16:38:59.982Z,22.91
2022-09-07T16:44:03.512Z,22.87
2022-09-07T16:49:07.653Z,22.84
2022-09-07T16:54:13.473Z,22.80
2022-09-07T16:59:20.457Z,22.76
2022-09-07T17:04:23.915Z,22.71
2022-09-07T17:09:29.364Z,22.65
2022-09-07T17:14:32.820Z,22.58
2022-09-07T17:19:35.929Z,22.48
2022-09-07T17:24:39.222Z,22.36
2022-09-07T17:29:42.875Z,22.24
2022-09-07T17:34:45.986Z,22.10
2022-09-07T17:39:49.458Z,21.98
2022-09-07T17:44:53.022Z,21.84
2022-09-07T17:49:56.193Z,21.71
2022-09-07T17:55:01.409Z,21.57
2022-09-07T18:00:11.205Z,21.45
2022-09-07T18:05:16.703Z,21.33
2022-09-07T18:10:20.479Z,21.21
2022-09-07T18:15:23.362Z,21.09
2022-09-07T18:20:26.722Z,20.98
2022-09-07T18:25:30.060Z,20.90
2022-09-07T18:30:36.486Z,20.82
2022-09-07T18:35:54.203Z,20.76
2022-09-07T18:41:14.130Z,20.66
2022-09-07T18:46:23.251Z,20.58
2022-09-07T18:51:26.733Z,20.49
2022-09-07T18:56:29.979Z,20.40
2022-09-07T19:01:33.029Z,20.32
2022-09-07T19:06:35.922Z,20.23
2022-09-07T19:11:41.129Z,20.15
2022-09-07T19:16:45.155Z,20.09
2022-09-07T19:21:48.823Z,20.04
2022-09-07T19:26:51.675Z,20.02
2022-09-07T19:32:07.991Z,19.96
2022-09-07T19:37:12.946Z,19.92
2022-09-07T19:42:15.830Z,19.90
2022-09-07T19:47:19.139Z,19.88
2022-09-07T19:52:22.116Z,19.84
2022-09-07T19:57:24.954Z,19.80
2022-09-07T20:02:27.810Z,19.77
2022-09-07T20:07:30.630Z,19.74
2022-09-07T20:12:33.517Z,19.70
2022-09-07T20:17:37.990Z,19.67
2022-09-07T20:22:41.329Z,19.65
2022-09-07T20:27:44.165Z,19.62
2022-09-07T20:32:47.232Z,19.58
2022-09-07T20:37:50.314Z,19.55
2022-09-07T20:42:53.639Z,19.51
2022-09-07T20:47:56.508Z,19.46
2022-09-07T20:52:59.415Z,19.43
2022-09-07T20:58:03.101Z,19.40
2022-09-07T21:03:06.003Z,19.37
2022-09-07T21:08:09.043Z,19.33
2022-09-07T21:13:12.245Z,19.30
2022-09-07T21:18:17.865Z,19.27
2022-09-07T21:23:21.106Z,19.24
2022-09-07T21:28:25.895Z,19.21
2022-09-07T21:33:30.800Z,19.18
2022-09-07T21:38:35.414Z,19.12
2022-09-07T21:43:39.849Z,19.06
2022-09-07T21:48:43.438Z,18.99
2022-09-07T21:53:51.631Z,18.90
2022-09-07T21:58:55.585Z,18.81
2022-09-07T22:04:03.471Z,18.74
2022-09-07T22:09:06.515Z,18.67
2022-09-07T22:14:11.915Z,18.59
2022-09-07T22:19:14.782Z,18.53
2022-09-07T22:24:17.894Z,18.46
2022-09-07T22:29:20.770Z,18.40
2022-09-07T22:34:23.745Z,18.32
2022-09-07T22:39:26.625Z,18.24
2022-09-07T22:44:30.137Z,18.17
2022-09-07T22:49:33.298Z,18.10
2022-09-07T22:54:36.096Z,18.02
2022-09-07T22:59:38.940Z,17.94
2022-09-07T23:04:41.925Z,17.87
2022-09-07T23:09:44.904Z,17.81
2022-09-07T23:14:47.783Z,17.77
2022-09-07T23:19:50.658Z,17.72
2022-09-07T23:24:53.565Z,17.69
2022-09-07T23:29:56.353Z,17.64
2022-09-07T23:34:59.518Z,17.58
2022-09-07T23:40:02.685Z,17.52
2022-09-07T23:45:08.326Z,17.46
2022-09-07T23:50:11.292Z,17.40
2022-09-07T23:55:14.210Z,17.37
